createdAt,value
2022-08-30T00:00:12.470Z,20.10
2022-08-30T00:02:03.670Z,20.10
2022-08-30T00:03:55.500Z,20.10
2022-08-30T00:05:46.824Z,20.10
2022-08-30T00:07:37.650Z,20.00
2022-08-30T00:09:28.083Z,19.90
2022-08-30T00:11:21.013Z,19.90
2022-08-30T00:13:12.976Z,19.90
2022-08-30T00:15:04.516Z,20.00
2022-08-30T00:16:56.723Z,20.00
2022-08-30T00:18:47.529Z,20.00
2022-08-30T00:20:39.014Z,19.90
2022-08-30T00:22:29.786Z,19.90
2022-08-30T00:24:20.362Z,19.90
2022-08-30T00:26:11.326Z,19.90
2022-08-30T00:28:02.138Z,20.00
2022-08-30T00:29:52.439Z,20.00
2022-08-30T00:31:43.166Z,19.90
2022-08-30T00:33:35.105Z,19.80
2022-08-30T00:35:25.880Z,19.90
2022-08-30T00:37:16.826Z,19.90
2022-08-30T00:39:07.202Z,19.90
2022-08-30T00:40:57.613Z,19.90
2022-08-30T00:42:51.005Z,19.90
2022-08-30T00:44:43.438Z,19.80
2022-08-30T00:46:34.119Z,19.90
2022-08-30T00:48:34.134Z,19.90
2022-08-30T00:50:35.052Z,19.80
2022-08-30T00:52:26.961Z,19.90
2022-08-30T00:54:18.265Z,19.90
2022-08-30T00:56:09.122Z,19.90
2022-08-30T00:58:04.333Z,19.80
2022-08-30T01:00:03.591Z,19.80
2022-08-30T01:01:55.219Z,19.80
2022-08-30T01:03:49.271Z,19.80
2022-08-30T01:05:42.176Z,19.80
2022-08-30T01:07:38.549Z,19.80
2022-08-30T01:09:29.574Z,19.80
2022-08-30T01:11:24.431Z,19.70
2022-08-30T01:13:25.126Z,19.70
2022-08-30T01:15:16.471Z,19.70
2022-08-30T01:17:08.138Z,19.70
2022-08-30T01:18:59.777Z,19.60
2022-08-30T01:20:59.369Z,19.60
2022-08-30T01:23:06.794Z,19.60
2022-08-30T01:25:02.174Z,19.60
2022-08-30T01:26:52.705Z,19.60
2022-08-30T01:28:49.102Z,19.60
2022-08-30T01:30:40.372Z,19.70
2022-08-30T01:32:31.640Z,19.70
2022-08-30T01:34:22.738Z,19.70
2022-08-30T01:36:14.957Z,19.70
2022-08-30T01:38:09.980Z,19.70
2022-08-30T01:40:01.135Z,19.70
2022-08-30T01:41:59.317Z,19.70
2022-08-30T01:43:54.655Z,19.70
2022-08-30T01:45:45.881Z,19.70
2022-08-30T01:47:43.383Z,19.70
2022-08-30T01:49:37.103Z,19.70
2022-08-30T01:51:31.669Z,19.70
2022-08-30T01:53:26.270Z,19.70
2022-08-30T01:55:16.845Z,19.70
2022-08-30T01:57:08.955Z,19.70
2022-08-30T01:59:14.086Z,19.60
2022-08-30T02:01:09.734Z,19.60
2022-08-30T02:03:05.026Z,19.60
2022-08-30T02:04:59.795Z,19.70
2022-08-30T02:06:51.915Z,19.70
2022-08-30T02:08:44.705Z,19.70
2022-08-30T02:10:35.447Z,19.60
2022-08-30T02:12:28.645Z,19.70
2022-08-30T02:14:21.203Z,19.60
2022-08-30T02:16:18.150Z,19.60
2022-08-30T02:18:08.918Z,19.60
2022-08-30T02:20:09.079Z,19.60
2022-08-30T02:22:01.995Z,19.60
2022-08-30T02:23:57.228Z,19.70
2022-08-30T02:25:48.160Z,19.60
2022-08-30T02:27:39.149Z,19.60
2022-08-30T02:29:33.386Z,19.50
2022-08-30T02:31:27.399Z,19.50
2022-08-30T02:33:18.937Z,19.60
2022-08-30T02:35:16.126Z,19.60
2022-08-30T02:37:07.131Z,19.50
2022-08-30T02:39:02.670Z,19.50
2022-08-30T02:40:53.706Z,19.60
2022-08-30T02:42:44.696Z,19.50
2022-08-30T02:44:35.283Z,19.50
2022-08-30T02:46:26.982Z,19.50
2022-08-30T02:48:24.269Z,19.50
2022-08-30T02:50:19.796Z,19.50
2022-08-30T02:52:10.915Z,19.50
2022-08-30T02:54:07.610Z,19.50
2022-08-30T02:56:07.111Z,19.40
2022-08-30T02:57:59.910Z,19.40
2022-08-30T02:59:50.929Z,19.40
2022-08-30T03:01:43.394Z,19.40
2022-08-30T03:03:36.217Z,19.40
2022-08-30T03:05:29.652Z,19.40
2022-08-30T03:07:21.326Z,19.40
2022-08-30T03:09:24.918Z,19.40
2022-08-30T03:11:15.652Z,19.40
2022-08-30T03:13:09.636Z,19.30
2022-08-30T03:15:01.562Z,19.30
2022-08-30T03:16:56.947Z,19.40
2022-08-30T03:18:50.470Z,19.40
2022-08-30T03:20:41.787Z,19.40
2022-08-30T03:22:38.313Z,19.40
2022-08-30T03:24:31.912Z,19.40
2022-08-30T03:26:29.186Z,19.40
2022-08-30T03:28:21.491Z,19.40
2022-08-30T03:30:18.890Z,19.40
2022-08-30T03:32:13.645Z,19.40
2022-08-30T03:34:04.736Z,19.40
2022-08-30T03:35:55.285Z,19.30
2022-08-30T03:37:46.255Z,19.40
2022-08-30T03:39:38.233Z,19.30
2022-08-30T03:41:28.747Z,19.30
2022-08-30T03:43:19.327Z,19.30
2022-08-30T03:45:10.660Z,19.30
2022-08-30T03:47:02.266Z,19.30
2022-08-30T03:48:53.775Z,19.20
2022-08-30T03:50:44.753Z,19.10
2022-08-30T03:52:38.596Z,19.10
2022-08-30T03:54:29.120Z,19.10
2022-08-30T03:56:21.010Z,19.10
2022-08-30T03:58:11.679Z,19.10
2022-08-30T04:00:03.514Z,19.10
2022-08-30T04:02:02.785Z,19.00
2022-08-30T04:03:56.700Z,19.00
2022-08-30T04:05:47.510Z,19.00
2022-08-30T04:07:38.741Z,19.00
2022-08-30T04:09:29.542Z,19.00
2022-08-30T04:11:27.109Z,18.90
2022-08-30T04:13:20.366Z,18.90
2022-08-30T04:15:12.102Z,18.90
2022-08-30T04:17:02.803Z,18.80
2022-08-30T04:18:54.923Z,18.80
2022-08-30T04:20:48.047Z,18.80
2022-08-30T04:22:39.145Z,18.80
2022-08-30T04:24:29.733Z,18.80
2022-08-30T04:26:21.420Z,18.80
2022-08-30T04:28:31.672Z,18.70
2022-08-30T04:30:43.470Z,18.70
2022-08-30T04:32:44.561Z,18.70
2022-08-30T04:34:36.181Z,18.70
2022-08-30T04:36:35.275Z,18.70
2022-08-30T04:38:30.791Z,18.60
2022-08-30T04:40:22.028Z,18.60
2022-08-30T04:42:33.190Z,18.60
2022-08-30T04:45:04.931Z,18.60
2022-08-30T04:47:06.979Z,18.50
2022-08-30T04:49:07.956Z,18.60
2022-08-30T04:50:59.077Z,18.60
2022-08-30T04:52:49.395Z,18.50
2022-08-30T04:54:39.775Z,18.50
2022-08-30T04:56:30.297Z,18.50
2022-08-30T04:58:20.809Z,18.50
2022-08-30T05:00:13.334Z,18.50
2022-08-30T05:02:03.946Z,18.40
2022-08-30T05:03:57.329Z,18.50
2022-08-30T05:05:48.695Z,18.50
2022-08-30T05:07:39.039Z,18.50
2022-08-30T05:09:29.997Z,18.50
2022-08-30T05:11:21.359Z,18.50
2022-08-30T05:13:12.871Z,18.60
2022-08-30T05:15:04.307Z,18.50
2022-08-30T05:16:55.179Z,18.50
2022-08-30T05:18:46.398Z,18.50
2022-08-30T05:20:38.950Z,18.50
2022-08-30T05:22:29.397Z,18.60
2022-08-30T05:24:20.461Z,18.50
2022-08-30T05:26:13.638Z,18.50
2022-08-30T05:28:04.122Z,18.50
2022-08-30T05:29:55.816Z,18.50
2022-08-30T05:31:46.622Z,18.50
2022-08-30T05:33:38.910Z,18.50
2022-08-30T05:35:29.518Z,18.50
2022-08-30T05:37:21.554Z,18.60
2022-08-30T05:39:12.003Z,18.60
2022-08-30T05:41:08.269Z,18.60
2022-08-30T05:43:01.582Z,18.50
2022-08-30T05:44:52.844Z,18.60
2022-08-30T05:46:43.550Z,18.60
2022-08-30T05:48:34.579Z,18.50
2022-08-30T05:50:25.187Z,18.60
2022-08-30T05:52:16.430Z,18.60
2022-08-30T05:54:08.698Z,18.60
2022-08-30T05:56:00.574Z,18.60
2022-08-30T05:57:51.024Z,18.60
2022-08-30T05:59:41.975Z,18.60
2022-08-30T06:01:34.422Z,18.60
2022-08-30T06:03:25.550Z,18.60
2022-08-30T06:05:17.913Z,18.70
2022-08-30T06:07:10.520Z,18.70
2022-08-30T06:09:05.832Z,18.70
2022-08-30T06:10:58.034Z,18.70
2022-08-30T06:12:48.535Z,18.70
2022-08-30T06:14:39.122Z,18.70
2022-08-30T06:16:29.889Z,18.80
2022-08-30T06:18:28.352Z,18.80
2022-08-30T06:20:19.480Z,18.90
2022-08-30T06:22:09.922Z,18.90
2022-08-30T06:24:00.603Z,18.90
2022-08-30T06:25:51.003Z,18.90
2022-08-30T06:27:43.167Z,18.90
2022-08-30T06:29:33.492Z,19.00
2022-08-30T06:31:26.192Z,19.00
2022-08-30T06:33:17.001Z,19.00
2022-08-30T06:35:08.647Z,19.00
2022-08-30T06:36:59.011Z,19.00
2022-08-30T06:38:50.151Z,19.00
2022-08-30T06:40:40.609Z,19.00
2022-08-30T06:42:32.537Z,19.10
2022-08-30T06:44:24.330Z,19.10
2022-08-30T06:46:16.795Z,19.10
2022-08-30T06:48:07.320Z,19.20
2022-08-30T06:49:58.717Z,19.20
2022-08-30T06:51:49.083Z,19.30
2022-08-30T06:53:39.413Z,19.30
2022-08-30T06:55:31.856Z,19.40
2022-08-30T06:57:22.822Z,19.40
2022-08-30T06:59:13.516Z,19.40
2022-08-30T07:01:05.988Z,19.50
2022-08-30T07:02:56.547Z,19.50
2022-08-30T07:04:47.209Z,19.60
2022-08-30T07:06:37.598Z,19.60
2022-08-30T07:08:27.941Z,19.60
2022-08-30T07:10:18.723Z,19.70
2022-08-30T07:12:10.026Z,19.80
2022-08-30T07:14:00.643Z,19.90
2022-08-30T07:15:52.135Z,19.90
2022-08-30T07:17:43.982Z,20.00
2022-08-30T07:19:34.615Z,20.00
2022-08-30T07:21:28.018Z,20.00
2022-08-30T07:23:18.444Z,20.10
2022-08-30T07:25:09.085Z,20.20
2022-08-30T07:26:59.614Z,20.30
2022-08-30T07:28:50.567Z,20.30
2022-08-30T07:30:47.023Z,20.30
2022-08-30T07:32:37.491Z,20.40
2022-08-30T07:34:29.250Z,20.40
2022-08-30T07:36:21.059Z,20.50
2022-08-30T07:38:13.105Z,20.50
2022-08-30T07:40:04.495Z,20.60
2022-08-30T07:41:55.482Z,20.60
2022-08-30T07:43:46.813Z,20.60
2022-08-30T07:45:37.732Z,20.60
2022-08-30T07:47:28.165Z,20.70
2022-08-30T07:49:18.540Z,20.70
2022-08-30T07:51:12.585Z,20.80
2022-08-30T07:53:06.669Z,20.90
2022-08-30T07:55:00.547Z,20.90
2022-08-30T07:56:51.450Z,20.90
2022-08-30T07:58:42.202Z,21.00
2022-08-30T08:00:32.797Z,21.00
2022-08-30T08:02:23.678Z,21.00
2022-08-30T08:04:14.147Z,21.10
2022-08-30T08:06:06.246Z,21.10
2022-08-30T08:07:58.080Z,21.20
2022-08-30T08:09:48.570Z,21.30
2022-08-30T08:11:39.335Z,21.30
2022-08-30T08:13:32.913Z,21.30
2022-08-30T08:15:36.413Z,21.30
2022-08-30T08:17:26.915Z,21.30
2022-08-30T08:19:17.581Z,21.30
2022-08-30T08:21:08.351Z,21.40
2022-08-30T08:23:00.651Z,21.40
2022-08-30T08:24:51.019Z,21.50
2022-08-30T08:26:45.411Z,21.60
2022-08-30T08:28:35.885Z,21.60
2022-08-30T08:30:26.462Z,21.70
2022-08-30T08:32:17.353Z,21.80
2022-08-30T08:34:08.149Z,21.80
2022-08-30T08:35:58.752Z,21.80
2022-08-30T08:37:49.122Z,21.90
2022-08-30T08:39:40.776Z,22.00
2022-08-30T08:41:40.295Z,22.00
2022-08-30T08:43:34.399Z,22.10
2022-08-30T08:45:37.709Z,22.20
2022-08-30T08:47:37.546Z,22.20
2022-08-30T08:49:28.809Z,22.20
2022-08-30T08:51:21.679Z,22.30
2022-08-30T08:53:36.067Z,22.30
2022-08-30T08:55:29.279Z,22.40
2022-08-30T08:57:24.471Z,22.40
2022-08-30T08:59:16.462Z,22.40
2022-08-30T09:01:08.781Z,22.40
2022-08-30T09:03:02.206Z,22.50
2022-08-30T09:04:56.099Z,22.50
2022-08-30T09:06:52.754Z,22.60
2022-08-30T09:08:43.372Z,22.70
2022-08-30T09:10:49.809Z,22.70
2022-08-30T09:12:40.954Z,22.80
2022-08-30T09:14:36.256Z,22.80
2022-08-30T09:16:47.802Z,22.90
2022-08-30T09:18:45.571Z,22.90
2022-08-30T09:20:38.852Z,23.00
2022-08-30T09:22:33.420Z,23.00
2022-08-30T09:24:26.259Z,23.00
2022-08-30T09:26:32.437Z,23.00
2022-08-30T09:28:25.504Z,23.10
2022-08-30T09:30:18.536Z,23.10
2022-08-30T09:32:25.635Z,23.20
2022-08-30T09:34:18.507Z,23.20
2022-08-30T09:36:19.206Z,23.20
2022-08-30T09:38:11.554Z,23.30
2022-08-30T09:40:10.849Z,23.30
2022-08-30T09:42:14.292Z,23.40
2022-08-30T09:44:08.651Z,23.50
2022-08-30T09:46:08.863Z,23.50
2022-08-30T09:47:59.818Z,23.50
2022-08-30T09:49:50.903Z,23.50
2022-08-30T09:51:47.048Z,23.50
2022-08-30T09:53:50.961Z,23.60
2022-08-30T09:55:58.714Z,23.70
2022-08-30T09:57:57.188Z,23.80
2022-08-30T09:59:50.606Z,23.80
2022-08-30T10:01:45.809Z,23.90
2022-08-30T10:03:41.750Z,23.90
2022-08-30T10:05:38.302Z,23.90
2022-08-30T10:07:38.413Z,24.00
2022-08-30T10:09:35.853Z,24.00
2022-08-30T10:11:32.528Z,24.10
2022-08-30T10:13:48.735Z,24.10
2022-08-30T10:15:43.067Z,24.20
2022-08-30T10:17:42.119Z,24.20
2022-08-30T10:19:46.049Z,24.20
2022-08-30T10:21:40.816Z,24.20
2022-08-30T10:23:34.818Z,24.20
2022-08-30T10:25:28.131Z,24.30
2022-08-30T10:27:22.626Z,24.40
2022-08-30T10:29:17.005Z,24.40
2022-08-30T10:31:11.238Z,24.40
2022-08-30T10:33:06.690Z,24.40
2022-08-30T10:35:02.188Z,24.50
2022-08-30T10:36:58.345Z,24.60
2022-08-30T10:38:50.145Z,24.60
2022-08-30T10:40:44.625Z,24.70
2022-08-30T10:42:40.016Z,24.70
2022-08-30T10:44:34.613Z,24.80
2022-08-30T10:46:30.981Z,24.90
2022-08-30T10:48:24.277Z,24.90
2022-08-30T10:50:17.563Z,25.00
2022-08-30T10:52:22.573Z,25.00
2022-08-30T10:54:18.720Z,25.00
2022-08-30T10:56:13.188Z,25.10
2022-08-30T10:58:06.108Z,25.10
2022-08-30T11:00:01.279Z,25.20
2022-08-30T11:02:15.346Z,25.20
2022-08-30T11:04:24.604Z,25.20
2022-08-30T11:06:20.053Z,25.20
2022-08-30T11:08:20.457Z,25.20
2022-08-30T11:10:23.086Z,25.30
2022-08-30T11:12:25.599Z,25.30
2022-08-30T11:14:18.935Z,25.40
2022-08-30T11:16:13.208Z,25.40
2022-08-30T11:18:11.261Z,25.50
2022-08-30T11:20:04.091Z,25.50
2022-08-30T11:21:54.258Z,25.60
2022-08-30T11:23:58.232Z,25.70
2022-08-30T11:25:57.747Z,25.70
2022-08-30T11:27:51.569Z,25.80
2022-08-30T11:29:44.045Z,25.80
2022-08-30T11:31:41.281Z,25.90
2022-08-30T11:33:42.929Z,26.00
2022-08-30T11:35:47.296Z,26.10
2022-08-30T11:37:41.707Z,26.20
2022-08-30T11:39:51.493Z,26.30
2022-08-30T11:43:56.366Z,26.50
2022-08-30T11:45:48.785Z,26.60
2022-08-30T11:47:44.767Z,26.70
2022-08-30T11:49:50.301Z,26.70
2022-08-30T11:52:26.439Z,26.90
2022-08-30T11:54:28.484Z,26.90
2022-08-30T11:56:25.192Z,26.90
2022-08-30T11:58:26.236Z,26.90
2022-08-30T12:00:29.592Z,26.90
2022-08-30T12:02:50.071Z,26.90
2022-08-30T12:04:45.445Z,27.00
2022-08-30T12:06:54.262Z,27.00
2022-08-30T12:08:47.876Z,27.00
2022-08-30T12:10:41.272Z,27.10
2022-08-30T12:12:50.846Z,27.20
2022-08-30T12:14:46.217Z,27.40
2022-08-30T12:16:39.191Z,27.50
2022-08-30T12:18:38.549Z,27.50
2022-08-30T12:20:39.218Z,27.70
2022-08-30T12:22:29.909Z,27.80
2022-08-30T12:24:25.442Z,27.80
2022-08-30T12:26:20.318Z,27.80
2022-08-30T12:28:14.167Z,27.60
2022-08-30T12:30:07.621Z,27.50
2022-08-30T12:32:03.383Z,27.50
2022-08-30T12:34:00.632Z,27.60
2022-08-30T12:35:51.570Z,27.70
2022-08-30T12:37:43.858Z,27.80
2022-08-30T12:39:37.381Z,28.00
2022-08-30T12:41:27.934Z,28.20
2022-08-30T12:43:26.850Z,28.20
2022-08-30T12:45:19.241Z,28.40
2022-08-30T12:47:11.696Z,28.50
2022-08-30T12:49:06.325Z,28.60
2022-08-30T12:50:58.422Z,28.60
2022-08-30T12:52:57.677Z,28.60
2022-08-30T12:54:48.502Z,28.70
2022-08-30T12:56:49.823Z,28.80
2022-08-30T12:58:43.929Z,28.90
2022-08-30T13:00:36.452Z,28.90
2022-08-30T13:02:28.585Z,29.10
2022-08-30T13:04:22.826Z,29.20
2022-08-30T13:06:13.271Z,29.30
2022-08-30T13:08:26.069Z,29.40
2022-08-30T13:10:19.589Z,29.40
2022-08-30T13:12:22.933Z,29.40
2022-08-30T13:14:30.018Z,29.50
2022-08-30T13:16:23.240Z,29.50
2022-08-30T13:18:26.796Z,29.20
2022-08-30T13:20:25.938Z,29.20
2022-08-30T13:22:27.885Z,29.30
2022-08-30T13:24:21.373Z,29.20
2022-08-30T13:26:20.436Z,29.20
2022-08-30T13:28:13.680Z,29.30
2022-08-30T13:30:07.980Z,29.30
2022-08-30T13:32:04.328Z,29.40
2022-08-30T13:33:55.206Z,29.40
2022-08-30T13:35:47.184Z,29.40
2022-08-30T13:37:49.895Z,29.30
2022-08-30T13:39:41.746Z,29.30
2022-08-30T13:41:34.724Z,29.30
2022-08-30T13:43:25.626Z,29.30
2022-08-30T13:47:35.869Z,29.10
2022-08-30T13:49:45.632Z,29.10
2022-08-30T13:51:37.957Z,29.20
2022-08-30T13:55:40.615Z,29.30
2022-08-30T13:59:42.584Z,29.20
2022-08-30T14:06:29.308Z,28.70
2022-08-30T14:10:31.953Z,28.70
2022-08-30T14:12:52.646Z,28.60
2022-08-30T14:14:42.896Z,28.50
2022-08-30T14:16:35.314Z,28.50
2022-08-30T14:18:26.015Z,28.40
2022-08-30T14:20:17.810Z,28.30
2022-08-30T14:22:08.523Z,28.20
2022-08-30T14:24:01.153Z,28.10
2022-08-30T14:25:52.955Z,28.00
2022-08-30T14:27:43.790Z,27.90
2022-08-30T14:29:34.136Z,27.80
2022-08-30T14:31:25.843Z,27.80
2022-08-30T14:33:16.899Z,27.80
2022-08-30T14:35:08.049Z,27.90
2022-08-30T14:36:58.803Z,27.90
2022-08-30T14:38:49.456Z,28.00
2022-08-30T14:40:41.781Z,27.90
2022-08-30T14:42:32.467Z,27.90
2022-08-30T14:44:24.306Z,27.80
2022-08-30T14:46:15.716Z,27.70
2022-08-30T14:48:15.029Z,27.60
2022-08-30T14:50:06.980Z,27.50
2022-08-30T14:51:58.561Z,27.30
2022-08-30T14:53:51.940Z,27.30
2022-08-30T14:55:44.091Z,27.20
2022-08-30T14:57:34.741Z,27.20
2022-08-30T14:59:26.154Z,27.20
2022-08-30T15:01:17.914Z,27.10
2022-08-30T15:03:08.799Z,27.10
2022-08-30T15:04:59.432Z,27.10
2022-08-30T15:06:51.182Z,27.10
2022-08-30T15:08:41.735Z,27.00
2022-08-30T15:10:40.716Z,27.10
2022-08-30T15:12:35.094Z,27.10
2022-08-30T15:14:26.875Z,27.20
2022-08-30T15:16:21.225Z,27.20
2022-08-30T15:18:12.244Z,27.20
2022-08-30T15:20:08.582Z,27.30
2022-08-30T15:22:02.636Z,27.30
2022-08-30T15:23:54.001Z,27.30
2022-08-30T15:25:44.928Z,27.30
2022-08-30T15:27:36.778Z,27.30
2022-08-30T15:29:27.646Z,27.30
2022-08-30T15:31:22.991Z,27.40
2022-08-30T15:33:13.961Z,27.40
2022-08-30T15:35:07.924Z,27.50
2022-08-30T15:36:58.755Z,27.60
2022-08-30T15:38:49.290Z,27.70
2022-08-30T15:40:39.796Z,27.80
2022-08-30T15:42:30.659Z,28.00
2022-08-30T15:44:22.486Z,28.10
2022-08-30T15:46:18.320Z,28.20
2022-08-30T15:48:09.127Z,28.40
2022-08-30T15:50:01.685Z,28.50
2022-08-30T15:51:54.132Z,28.50
2022-08-30T15:53:45.815Z,28.60
2022-08-30T15:55:37.290Z,28.70
2022-08-30T15:57:28.368Z,28.70
2022-08-30T15:59:18.902Z,28.80
2022-08-30T16:01:30.223Z,28.60
2022-08-30T16:03:22.121Z,28.70
2022-08-30T16:05:12.517Z,28.60
2022-08-30T16:07:03.117Z,28.60
2022-08-30T16:08:55.238Z,28.50
2022-08-30T16:10:45.881Z,28.30
2022-08-30T16:12:38.619Z,28.10
2022-08-30T16:14:29.529Z,28.10
2022-08-30T16:16:22.237Z,28.00
2022-08-30T16:18:13.695Z,28.00
2022-08-30T16:20:06.559Z,28.00
2022-08-30T16:21:57.458Z,28.00
2022-08-30T16:23:48.424Z,28.00
2022-08-30T16:25:41.171Z,27.90
2022-08-30T16:27:32.065Z,27.80
2022-08-30T16:29:22.594Z,27.80
2022-08-30T16:31:15.497Z,27.70
2022-08-30T16:33:07.309Z,27.70
2022-08-30T16:34:58.091Z,27.60
2022-08-30T16:36:48.724Z,27.50
2022-08-30T16:38:39.748Z,27.50
2022-08-30T16:40:30.651Z,27.60
2022-08-30T16:42:21.647Z,27.40
2022-08-30T16:44:12.379Z,27.40
2022-08-30T16:46:05.723Z,27.30
2022-08-30T16:47:57.218Z,27.30
2022-08-30T16:49:48.737Z,27.20
2022-08-30T16:51:41.114Z,27.20
2022-08-30T16:53:31.648Z,27.20
2022-08-30T16:55:22.623Z,27.00
2022-08-30T16:57:13.483Z,27.00
2022-08-30T16:59:10.348Z,27.00
2022-08-30T17:01:02.218Z,26.90
2022-08-30T17:02:54.224Z,26.90
2022-08-30T17:04:44.775Z,26.80
2022-08-30T17:06:37.014Z,26.80
2022-08-30T17:08:27.493Z,26.70
2022-08-30T17:10:19.226Z,26.60
2022-08-30T17:12:17.183Z,26.50
2022-08-30T17:14:08.247Z,26.40
2022-08-30T17:15:59.274Z,26.40
2022-08-30T17:17:49.647Z,26.50
2022-08-30T17:19:41.291Z,26.60
2022-08-30T17:21:33.640Z,26.80
2022-08-30T17:23:25.770Z,26.90
2022-08-30T17:25:16.606Z,27.00
2022-08-30T17:27:09.987Z,27.00
2022-08-30T17:29:00.812Z,26.90
2022-08-30T17:30:51.780Z,26.90
2022-08-30T17:32:42.569Z,27.10
2022-08-30T17:34:33.596Z,27.20
2022-08-30T17:36:24.352Z,27.20
2022-08-30T17:38:15.695Z,27.20
2022-08-30T17:40:14.391Z,27.20
2022-08-30T17:42:05.463Z,27.10
2022-08-30T17:43:56.094Z,27.00
2022-08-30T17:45:46.450Z,26.90
2022-08-30T17:47:37.007Z,26.80
2022-08-30T17:49:29.364Z,26.70
2022-08-30T17:51:19.891Z,26.60
2022-08-30T17:53:10.518Z,26.50
2022-08-30T17:55:01.294Z,26.40
2022-08-30T17:56:53.779Z,26.40
2022-08-30T17:58:44.382Z,26.30
2022-08-30T18:00:34.708Z,26.30
2022-08-30T18:02:29.874Z,26.10
2022-08-30T18:04:21.024Z,26.10
2022-08-30T18:06:11.784Z,26.10
2022-08-30T18:08:02.585Z,25.90
2022-08-30T18:09:53.129Z,25.80
2022-08-30T18:11:44.835Z,25.80
2022-08-30T18:13:37.459Z,25.60
2022-08-30T18:15:27.640Z,25.50
2022-08-30T18:17:18.491Z,25.40
2022-08-30T18:19:09.678Z,25.40
2022-08-30T18:21:00.239Z,25.30
2022-08-30T18:22:51.476Z,25.30
2022-08-30T18:24:42.885Z,25.20
2022-08-30T18:26:33.636Z,25.10
2022-08-30T18:28:24.416Z,25.00
2022-08-30T18:30:16.642Z,25.00
2022-08-30T18:32:09.196Z,24.90
2022-08-30T18:33:59.921Z,24.90
2022-08-30T18:35:50.677Z,24.80
2022-08-30T18:37:41.990Z,24.70
2022-08-30T18:39:34.143Z,24.70
2022-08-30T18:41:43.425Z,24.60
2022-08-30T18:43:34.964Z,24.50
2022-08-30T18:45:26.740Z,24.50
2022-08-30T18:47:17.495Z,24.50
2022-08-30T18:49:16.880Z,24.40
2022-08-30T18:51:10.335Z,24.30
2022-08-30T18:53:00.793Z,24.20
2022-08-30T18:54:52.570Z,24.10
2022-08-30T18:56:43.856Z,24.00
2022-08-30T18:58:35.853Z,23.90
2022-08-30T19:00:28.281Z,23.70
2022-08-30T19:02:20.373Z,23.60
2022-08-30T19:04:11.182Z,23.60
2022-08-30T19:06:13.110Z,23.70
2022-08-30T19:08:04.570Z,23.70
2022-08-30T19:09:55.190Z,23.60
2022-08-30T19:11:52.337Z,23.60
2022-08-30T19:13:43.126Z,23.50
2022-08-30T19:15:35.602Z,23.50
2022-08-30T19:17:26.422Z,23.40
2022-08-30T19:19:17.265Z,23.40
2022-08-30T19:21:13.499Z,23.40
2022-08-30T19:23:09.168Z,23.30
2022-08-30T19:25:00.697Z,23.20
2022-08-30T19:26:51.143Z,23.10
2022-08-30T19:28:41.961Z,23.10
2022-08-30T19:30:34.315Z,23.10
2022-08-30T19:32:24.711Z,23.00
2022-08-30T19:34:16.539Z,23.00
2022-08-30T19:36:07.627Z,23.00
2022-08-30T19:37:58.309Z,23.00
2022-08-30T19:39:48.939Z,22.90
2022-08-30T19:41:39.757Z,22.90
2022-08-30T19:43:30.880Z,22.80
2022-08-30T19:45:22.956Z,22.80
2022-08-30T19:47:15.057Z,22.70
2022-08-30T19:49:06.208Z,22.70
2022-08-30T19:50:57.529Z,22.80
2022-08-30T19:52:54.149Z,22.70
2022-08-30T19:54:45.754Z,22.60
2022-08-30T19:56:36.329Z,22.40
2022-08-30T19:58:26.796Z,22.40
2022-08-30T20:00:17.531Z,22.40
2022-08-30T20:02:08.499Z,22.40
2022-08-30T20:04:00.572Z,22.30
2022-08-30T20:05:51.534Z,22.20
2022-08-30T20:07:42.262Z,22.20
2022-08-30T20:09:32.922Z,22.30
2022-08-30T20:11:23.680Z,22.30
2022-08-30T20:13:14.673Z,22.30
2022-08-30T20:15:06.918Z,22.20
2022-08-30T20:16:57.457Z,22.20
2022-08-30T20:18:47.844Z,22.20
2022-08-30T20:20:39.969Z,22.20
2022-08-30T20:22:30.429Z,22.20
2022-08-30T20:24:20.854Z,22.20
2022-08-30T20:26:12.507Z,22.20
2022-08-30T20:28:03.420Z,22.10
2022-08-30T20:29:54.252Z,22.10
2022-08-30T20:31:45.037Z,22.00
2022-08-30T20:33:36.530Z,22.00
2022-08-30T20:35:27.339Z,22.00
2022-08-30T20:37:19.956Z,22.00
2022-08-30T20:39:10.261Z,21.90
2022-08-30T20:41:09.825Z,21.80
2022-08-30T20:43:00.196Z,21.80
2022-08-30T20:44:50.520Z,21.80
2022-08-30T20:46:43.187Z,21.80
2022-08-30T20:48:33.327Z,21.70
2022-08-30T20:50:23.645Z,21.70
2022-08-30T20:52:14.771Z,21.70
2022-08-30T20:54:07.019Z,21.70
2022-08-30T20:55:57.669Z,21.60
2022-08-30T20:57:48.408Z,21.70
2022-08-30T20:59:39.089Z,21.70
2022-08-30T21:01:30.302Z,21.70
2022-08-30T21:03:26.037Z,21.70
2022-08-30T21:05:18.849Z,21.70
2022-08-30T21:07:09.167Z,21.50
2022-08-30T21:08:59.691Z,21.60
2022-08-30T21:10:51.617Z,21.50
2022-08-30T21:12:42.397Z,21.50
2022-08-30T21:14:33.134Z,21.40
2022-08-30T21:16:23.613Z,21.40
2022-08-30T21:18:14.356Z,21.50
2022-08-30T21:20:06.414Z,21.50
2022-08-30T21:21:56.738Z,21.50
2022-08-30T21:23:47.294Z,21.50
2022-08-30T21:25:38.752Z,21.50
2022-08-30T21:27:30.560Z,21.40
2022-08-30T21:29:21.167Z,21.40
2022-08-30T21:31:13.673Z,21.40
2022-08-30T21:33:04.375Z,21.40
2022-08-30T21:34:54.925Z,21.40
2022-08-30T21:36:45.873Z,21.50
2022-08-30T21:38:36.495Z,21.40
2022-08-30T21:40:27.222Z,21.40
2022-08-30T21:42:17.882Z,21.40
2022-08-30T21:44:11.327Z,21.40
2022-08-30T21:46:05.552Z,21.50
2022-08-30T21:47:56.062Z,21.50
2022-08-30T21:49:46.491Z,21.50
2022-08-30T21:51:38.350Z,21.40
2022-08-30T21:53:28.895Z,21.40
2022-08-30T21:55:19.278Z,21.30
2022-08-30T21:57:09.833Z,21.30
2022-08-30T21:59:00.605Z,21.30
2022-08-30T22:00:52.826Z,21.30
2022-08-30T22:02:43.424Z,21.30
2022-08-30T22:04:33.703Z,21.30
2022-08-30T22:06:29.273Z,21.40
2022-08-30T22:08:21.334Z,21.40
2022-08-30T22:10:12.530Z,21.30
2022-08-30T22:12:04.016Z,21.30
2022-08-30T22:13:57.474Z,21.20
2022-08-30T22:15:49.225Z,21.20
2022-08-30T22:17:41.826Z,21.20
2022-08-30T22:19:33.732Z,21.10
2022-08-30T22:21:27.032Z,21.10
2022-08-30T22:23:19.043Z,21.10
2022-08-30T22:25:10.368Z,21.10
2022-08-30T22:27:01.660Z,21.20
2022-08-30T22:28:53.523Z,21.20
2022-08-30T22:30:44.134Z,21.20
2022-08-30T22:32:34.739Z,21.10
2022-08-30T22:34:26.776Z,21.10
2022-08-30T22:36:19.284Z,21.10
2022-08-30T22:38:09.380Z,21.10
2022-08-30T22:39:59.910Z,21.10
2022-08-30T22:41:50.309Z,21.10
2022-08-30T22:43:41.871Z,21.10
2022-08-30T22:45:33.067Z,21.00
2022-08-30T22:47:24.541Z,21.00
2022-08-30T22:49:14.972Z,21.00
2022-08-30T22:51:07.843Z,21.00
2022-08-30T22:52:58.441Z,21.00
2022-08-30T22:54:49.190Z,21.00
2022-08-30T22:56:39.723Z,21.00
2022-08-30T22:58:30.363Z,21.00
2022-08-30T23:00:21.265Z,20.90
2022-08-30T23:02:11.566Z,20.90
2022-08-30T23:04:03.575Z,20.90
2022-08-30T23:05:54.523Z,20.90
2022-08-30T23:07:46.169Z,20.90
2022-08-30T23:09:36.714Z,20.80
2022-08-30T23:11:27.700Z,20.80
2022-08-30T23:13:20.000Z,20.80
2022-08-30T23:15:14.202Z,20.80
2022-08-30T23:17:04.972Z,20.80
2022-08-30T23:18:55.646Z,20.80
2022-08-30T23:20:46.149Z,20.80
2022-08-30T23:22:36.492Z,20.80
2022-08-30T23:24:28.461Z,20.80
2022-08-30T23:26:18.835Z,20.70
2022-08-30T23:28:09.796Z,20.70
2022-08-30T23:30:00.163Z,20.70
2022-08-30T23:31:51.213Z,20.70
2022-08-30T23:33:41.890Z,20.60
2022-08-30T23:35:32.528Z,20.60
2022-08-30T23:37:23.304Z,20.60
2022-08-30T23:39:13.871Z,20.60
2022-08-30T23:41:05.929Z,20.60
2022-08-30T23:42:56.420Z,20.50
2022-08-30T23:44:46.674Z,20.50
2022-08-30T23:46:36.987Z,20.50
2022-08-30T23:48:27.414Z,20.50
2022-08-30T23:50:18.255Z,20.50
2022-08-30T23:52:08.647Z,20.50
2022-08-30T23:53:58.927Z,20.40
2022-08-30T23:55:49.488Z,20.40
2022-08-30T23:57:41.676Z,20.40
2022-08-30T23:59:32.308Z,20.40
